Sioux Lookout Airport
CYXL : now visible

Airfield :











YOU CAN JOIN US ON...

 
LOGIN :

Register | Disclaimer

   EN    FR    IT 

 









Legend :    VFR   Marginal VFR   IFR   Intensive IFR   Very Intensive IFR
Visi :
Ceiling :
>= 8 km
>= 3000ft
5 to 8 km
1000 to 3000 ft
1500m to 5 km
500 to 1000 ft
800 to 1500m
200 to 500 ft
< 800m
< 200 ft
Symbols :   Thunderstorms  Fog  Heavy snow  Heavy precipitations  Wind > 20 kt







- Airport Elevation : 1258 ft
- IATA code : YXL


CYXL - Sioux Lookout

CURRENT METAR :
  • 200900Z 00000KT 15SM FEW100 SCT180 M00/M00 A3007 RMK AC1AS2 SLP199

EXPIRED METARs :
  • 200800Z VRB02KT 15SM FEW180 00/M00 A3006 RMK AS2 SLP196
  • 200700Z 00000KT 15SM FEW056 FEW180 03/01 A3005 RMK SC1AS2 SC TR SLP191

TAF TAF CYXL
Valid from the 20 at 08:00 until the 20 at 20:00 UTC


200738Z 2008/2020 VRB03KT P6SM FEW050
BECMG 2013/2015 33006KT RMK NXT FCST BY 201400Z
CZWG FIR / North America



MET'MAP, your aeronautical weather chart ! - Copyright ORBIFLY December 2007 - Disclaimer

ORBIFLY MET'MAP TEAM :

Programming & Development : Alexandra Zaïnal
Concept & Development : Baudouin d'Aumeries
Co-Development & Prog : Marc-Olivier Méhu
Technical & hardware support : Manuel Goepfert

Contact : metmap@orbifly.com




SOURCES & CREDITS :

   NOAA       Earth
Advisory